createdAt,value
2023-05-21T00:03:45.761Z,14.4
2023-05-21T00:05:46.737Z,14.4
2023-05-21T00:07:47.896Z,14.4
2023-05-21T00:11:50.109Z,14.4
2023-05-21T00:13:51.222Z,14.3
2023-05-21T00:26:01.095Z,14.2
2023-05-21T00:28:02.233Z,14.2
2023-05-21T00:30:03.364Z,14.1
2023-05-21T00:32:07.802Z,14.1
2023-05-21T00:34:08.760Z,14.1
2023-05-21T00:36:09.875Z,14.1
2023-05-21T00:37:12.031Z,14.1
2023-05-21T00:45:21.231Z,14.1
2023-05-21T00:49:23.551Z,14.1
2023-05-21T00:51:24.631Z,14.1
2023-05-21T00:55:26.868Z,14
2023-05-21T00:57:28.009Z,14
2023-05-21T00:59:32.321Z,14.1
2023-05-21T01:03:34.614Z,14.1
2023-05-21T01:05:35.892Z,14.1
2023-05-21T01:07:37.398Z,14
2023-05-21T01:09:38.530Z,14
2023-05-21T01:11:39.696Z,14
2023-05-21T01:13:43.972Z,14
2023-05-21T01:15:45.097Z,14
2023-05-21T01:17:46.390Z,14
2023-05-21T01:19:47.586Z,13.9
2023-05-21T01:21:48.579Z,13.9
2023-05-21T01:23:49.730Z,13.9
2023-05-21T01:25:50.844Z,13.9
2023-05-21T01:27:55.158Z,13.9
2023-05-21T01:29:56.360Z,13.9
2023-05-21T01:31:57.501Z,13.8
2023-05-21T01:32:59.698Z,13.8
2023-05-21T01:35:00.763Z,13.8
2023-05-21T01:37:01.890Z,13.8
2023-05-21T01:45:09.716Z,13.8
2023-05-21T01:51:12.952Z,13.7
2023-05-21T01:53:14.053Z,13.7
2023-05-21T01:55:18.343Z,13.7
2023-05-21T01:57:19.471Z,13.7
2023-05-21T01:59:20.605Z,13.6
2023-05-21T02:01:21.739Z,13.6
2023-05-21T02:03:22.864Z,13.7
2023-05-21T02:05:23.974Z,13.7
2023-05-21T02:07:25.099Z,13.6
2023-05-21T02:09:29.443Z,13.6
2023-05-21T02:11:30.534Z,13.6
2023-05-21T02:13:31.645Z,13.6
2023-05-21T02:15:32.789Z,13.6
2023-05-21T02:17:33.945Z,13.6
2023-05-21T02:19:35.182Z,13.6
2023-05-21T02:27:42.870Z,13.6
2023-05-21T02:30:10.930Z,13.6
2023-05-21T02:32:12.042Z,13.5
2023-05-21T02:36:17.756Z,13.5
2023-05-21T02:40:19.884Z,13.6
2023-05-21T02:42:20.978Z,13.6
2023-05-21T02:44:22.257Z,13.6
2023-05-21T02:48:24.444Z,13.6
2023-05-21T02:50:28.851Z,13.6
2023-05-21T02:52:29.946Z,13.6
2023-05-21T02:54:31.117Z,13.6
2023-05-21T02:56:32.260Z,13.6
2023-05-21T03:00:34.477Z,13.6
2023-05-21T03:02:35.670Z,13.6
2023-05-21T03:04:40.012Z,13.6
2023-05-21T03:06:41.233Z,13.7
2023-05-21T03:10:43.685Z,13.7
2023-05-21T03:18:51.445Z,13.6
2023-05-21T03:20:52.494Z,13.6
2023-05-21T03:23:55.740Z,13.6
2023-05-21T03:25:56.903Z,13.6
2023-05-21T03:27:58.130Z,13.6
2023-05-21T03:29:59.354Z,13.6
2023-05-21T03:32:03.840Z,13.6
2023-05-21T03:34:04.935Z,13.6
2023-05-21T03:36:06.135Z,13.6
2023-05-21T03:42:09.514Z,13.5
2023-05-21T03:46:15.135Z,13.5
2023-05-21T03:48:16.299Z,13.5
2023-05-21T03:50:17.532Z,13.5
2023-05-21T03:52:18.667Z,13.5
2023-05-21T03:54:19.898Z,13.5
2023-05-21T03:56:21.108Z,13.5
2023-05-21T04:00:26.641Z,13.5
2023-05-21T04:08:31.529Z,13.6
2023-05-21T04:10:32.656Z,13.6
2023-05-21T04:12:33.807Z,13.6
2023-05-21T04:14:38.108Z,13.6
2023-05-21T04:16:39.403Z,13.6
2023-05-21T04:21:43.895Z,13.6
2023-05-21T04:23:45.030Z,13.6
2023-05-21T04:25:46.177Z,13.6
2023-05-21T04:27:50.461Z,13.6
2023-05-21T04:29:51.602Z,13.6
2023-05-21T04:31:52.779Z,13.6
2023-05-21T04:33:53.864Z,13.6
2023-05-21T04:35:55.083Z,13.6
2023-05-21T04:37:56.208Z,13.6
2023-05-21T04:39:57.460Z,13.6
2023-05-21T04:42:01.958Z,13.6
2023-05-21T04:44:03.087Z,13.7
2023-05-21T04:48:05.497Z,13.6
2023-05-21T04:50:06.691Z,13.7
2023-05-21T04:52:07.819Z,13.7
2023-05-21T04:54:09.065Z,13.7
2023-05-21T04:56:13.452Z,13.7
2023-05-21T05:10:25.102Z,13.7
2023-05-21T05:15:29.494Z,13.8
2023-05-21T05:17:30.634Z,13.8
2023-05-21T05:19:31.814Z,13.8
2023-05-21T05:21:32.931Z,13.8
2023-05-21T05:27:39.692Z,13.8
2023-05-21T05:31:42.059Z,13.8
2023-05-21T05:33:43.169Z,13.8
2023-05-21T05:35:44.400Z,13.8
2023-05-21T05:39:49.816Z,13.9
2023-05-21T05:41:50.932Z,13.9
2023-05-21T05:43:52.057Z,13.9
2023-05-21T05:45:53.225Z,13.9
2023-05-21T05:47:54.348Z,13.9
2023-05-21T05:51:59.708Z,14
2023-05-21T05:54:00.842Z,14
2023-05-21T06:02:05.340Z,14.1
2023-05-21T06:04:06.444Z,14
2023-05-21T06:06:10.860Z,14
2023-05-21T06:08:11.981Z,14
2023-05-21T06:10:13.089Z,14.1
2023-05-21T06:14:44.888Z,14
2023-05-21T06:16:43.351Z,14.1
2023-05-21T06:18:47.688Z,14.1
2023-05-21T06:20:48.732Z,14.2
2023-05-21T06:24:50.973Z,14.1
2023-05-21T06:28:53.256Z,14.1
2023-05-21T06:30:54.369Z,14.2
2023-05-21T06:32:58.732Z,14.2
2023-05-21T06:35:01.306Z,14.2
2023-05-21T06:47:11.340Z,14.4
2023-05-21T06:49:14.197Z,14.4
2023-05-21T06:51:13.582Z,14.4
2023-05-21T06:53:14.720Z,14.3
2023-05-21T06:59:17.983Z,14.5
2023-05-21T07:01:22.392Z,14.6
2023-05-21T07:03:23.651Z,14.6
2023-05-21T07:05:24.494Z,14.7
2023-05-21T07:06:26.671Z,14.7
2023-05-21T07:10:28.872Z,14.7
2023-05-21T07:12:29.981Z,14.7
2023-05-21T07:14:34.316Z,14.7
2023-05-21T07:16:35.435Z,14.7
2023-05-21T07:20:37.584Z,14.7
2023-05-21T07:24:39.797Z,14.7
2023-05-21T07:26:40.898Z,14.7
2023-05-21T07:28:45.187Z,14.8
2023-05-21T07:30:46.308Z,14.9
2023-05-21T07:32:47.441Z,14.9
2023-05-21T07:34:48.522Z,14.9
2023-05-21T07:36:49.607Z,15
2023-05-21T07:38:50.732Z,15
2023-05-21T07:40:51.833Z,15
2023-05-21T07:42:56.106Z,15
2023-05-21T07:44:57.221Z,15
2023-05-21T07:48:59.417Z,15.3
2023-05-21T07:51:00.594Z,15.6
2023-05-21T07:55:02.733Z,15.8
2023-05-21T07:57:07.015Z,15.7
2023-05-21T07:59:08.115Z,15.9
2023-05-21T08:01:09.239Z,15.9
2023-05-21T08:02:11.350Z,15.8
2023-05-21T08:04:12.586Z,15.9
2023-05-21T08:08:14.642Z,16.2
2023-05-21T08:12:19.993Z,16.4
2023-05-21T08:14:21.081Z,16.4
2023-05-21T08:16:22.191Z,16.5
2023-05-21T08:18:23.257Z,16.5
2023-05-21T08:20:24.345Z,16.6
2023-05-21T08:22:25.406Z,16.5
2023-05-21T08:24:29.700Z,16.5
2023-05-21T08:26:30.761Z,16.5
2023-05-21T08:28:31.849Z,16.9
2023-05-21T08:30:32.913Z,16.8
2023-05-21T08:34:35.089Z,17
2023-05-21T08:42:42.552Z,17.5
2023-05-21T08:44:43.624Z,17.3
2023-05-21T08:52:51.081Z,18.1
2023-05-21T08:54:52.136Z,18.3
2023-05-21T08:56:53.186Z,18.3
2023-05-21T08:57:55.336Z,18.4
2023-05-21T08:59:56.373Z,18.1
2023-05-21T09:01:57.485Z,18.4
2023-05-21T09:06:02.705Z,18.3
2023-05-21T09:08:03.776Z,18.3
2023-05-21T09:10:04.833Z,18.4
2023-05-21T09:12:05.859Z,18.7
2023-05-21T09:16:07.966Z,18.7
2023-05-21T09:18:09.036Z,18.5
2023-05-21T09:20:13.328Z,18.6
2023-05-21T09:22:14.307Z,18.8
2023-05-21T09:24:15.350Z,19.1
2023-05-21T09:26:16.369Z,19.4
2023-05-21T09:28:17.415Z,19.4
2023-05-21T09:32:19.482Z,18.8
2023-05-21T09:34:23.844Z,18.9
2023-05-21T09:36:24.744Z,18.8
2023-05-21T09:38:25.797Z,18.9
2023-05-21T09:40:26.816Z,19.4
2023-05-21T09:42:27.830Z,19.4
2023-05-21T09:44:29.038Z,19.3
2023-05-21T09:48:34.133Z,19
2023-05-21T09:50:35.389Z,18.9
2023-05-21T09:59:06.113Z,19.3
2023-05-21T10:11:15.476Z,19.3
2023-05-21T10:13:16.524Z,19.3
2023-05-21T10:29:31.187Z,19.6
2023-05-21T10:31:32.196Z,19.8
2023-05-21T10:33:33.300Z,19.8
2023-05-21T10:35:34.470Z,19.7
2023-05-21T10:37:35.298Z,19.9
2023-05-21T10:39:36.351Z,20.1
2023-05-21T10:41:37.344Z,20.6
2023-05-21T10:47:43.637Z,20
2023-05-21T10:48:45.710Z,20
2023-05-21T10:50:46.894Z,20.1
2023-05-21T10:52:47.765Z,20.5
2023-05-21T10:54:48.802Z,20.8
2023-05-21T10:56:53.007Z,20.9
2023-05-21T11:00:55.053Z,20.1
2023-05-21T11:02:56.095Z,20.6
2023-05-21T11:06:58.062Z,20.9
2023-05-21T11:08:59.053Z,21.4
2023-05-21T11:11:03.306Z,21.3
2023-05-21T11:13:04.313Z,21.2
2023-05-21T11:15:05.303Z,21.2
2023-05-21T11:17:06.329Z,20.9
2023-05-21T11:19:07.331Z,20.9
2023-05-21T11:21:08.275Z,20.9
2023-05-21T11:23:09.299Z,21.3
2023-05-21T11:25:13.525Z,21.7
2023-05-21T11:27:14.488Z,21.2
2023-05-21T11:35:18.493Z,21.8
2023-05-21T11:37:19.473Z,21.8
2023-05-21T11:39:23.699Z,22.4
2023-05-21T11:41:24.668Z,22.2
2023-05-21T11:43:25.666Z,22.3
2023-05-21T11:44:27.762Z,22.1
2023-05-21T11:46:28.764Z,22.2
2023-05-21T11:48:31.786Z,22.1
2023-05-21T11:54:35.912Z,22.6
2023-05-21T11:56:36.932Z,22.7
2023-05-21T12:02:39.970Z,22.6
2023-05-21T12:04:40.844Z,22.4
2023-05-21T12:31:01.505Z,21.3
2023-05-21T12:33:02.792Z,21.7
2023-05-21T12:35:06.724Z,22
2023-05-21T12:37:07.704Z,22.1
2023-05-21T12:39:10.615Z,22.1
2023-05-21T12:40:10.779Z,21.9
2023-05-21T12:42:11.771Z,21.9
2023-05-21T12:44:12.741Z,21.8
2023-05-21T12:46:13.725Z,22
2023-05-21T12:48:17.936Z,21.9
2023-05-21T12:50:18.915Z,22
2023-05-21T12:56:21.889Z,21.7
2023-05-21T12:58:22.867Z,21.7
2023-05-21T13:00:23.856Z,22
2023-05-21T13:02:28.093Z,21.9
2023-05-21T13:04:29.085Z,21.8
2023-05-21T13:08:31.041Z,21.9
2023-05-21T13:10:32.051Z,21.7
2023-05-21T13:12:33.016Z,21.6
2023-05-21T13:18:39.225Z,21.9
2023-05-21T13:20:40.218Z,21.6
2023-05-21T13:22:41.206Z,21.7
2023-05-21T13:24:42.249Z,21.8
2023-05-21T13:26:43.183Z,21.8
2023-05-21T13:28:44.184Z,21.7
2023-05-21T13:30:48.402Z,21.6
2023-05-21T13:32:49.588Z,21.6
2023-05-21T13:34:50.387Z,21.9
2023-05-21T13:37:18.154Z,22.5
2023-05-21T13:43:24.368Z,22.3
2023-05-21T13:47:26.343Z,22.6
2023-05-21T13:49:27.324Z,22.6
2023-05-21T13:53:29.254Z,22.8
2023-05-21T13:55:30.264Z,22.8
2023-05-21T13:57:34.420Z,22.8
2023-05-21T13:59:35.410Z,22.8
2023-05-21T14:01:36.425Z,22.9
2023-05-21T14:03:37.375Z,22.4
2023-05-21T14:05:38.322Z,22.5
2023-05-21T14:07:39.293Z,22.3
2023-05-21T14:09:40.292Z,22.3
2023-05-21T14:11:44.460Z,22.4
2023-05-21T14:17:47.412Z,22.8
2023-05-21T14:27:55.502Z,22.7
2023-05-21T14:29:56.480Z,23
2023-05-21T14:30:58.545Z,23.3
2023-05-21T14:32:59.540Z,23.4
2023-05-21T14:35:00.509Z,22.9
2023-05-21T14:37:01.463Z,23
2023-05-21T14:39:05.654Z,23
2023-05-21T14:41:06.608Z,23.1
2023-05-21T14:45:20.510Z,23
2023-05-21T14:47:09.506Z,22.9
2023-05-21T14:49:10.483Z,22.8
2023-05-21T14:51:11.457Z,23
2023-05-21T14:53:15.657Z,22.8
2023-05-21T14:55:16.860Z,22.9
2023-05-21T14:57:17.587Z,22.9
2023-05-21T14:59:18.575Z,22.8
2023-05-21T15:01:19.594Z,23.1
2023-05-21T15:03:20.617Z,23.2
2023-05-21T15:07:25.621Z,23.2
2023-05-21T15:09:26.631Z,23.2
2023-05-21T15:11:27.589Z,22.8
2023-05-21T15:13:28.557Z,22.8
2023-05-21T15:15:29.517Z,22.9
2023-05-21T15:17:30.500Z,22.9
2023-05-21T15:19:31.552Z,22.8
2023-05-21T15:21:35.643Z,23.2
2023-05-21T15:23:36.614Z,23.2
2023-05-21T15:28:40.645Z,23.1
2023-05-21T15:34:46.889Z,23.1
2023-05-21T15:38:48.739Z,23.2
2023-05-21T15:40:49.676Z,23.2
2023-05-21T15:44:51.674Z,23.2
2023-05-21T15:52:58.664Z,23.3
2023-05-21T15:54:59.637Z,23.5
2023-05-21T15:57:00.598Z,23.5
2023-05-21T15:59:01.563Z,23.4
2023-05-21T16:07:08.628Z,23.4
2023-05-21T16:21:18.591Z,23.2
2023-05-21T16:22:20.685Z,23.2
2023-05-21T16:24:21.640Z,23.4
2023-05-21T16:26:22.608Z,23.5
2023-05-21T16:28:23.566Z,23.4
2023-05-21T16:30:27.766Z,23.2
2023-05-21T16:32:28.835Z,23.2
2023-05-21T16:34:29.708Z,23.3
2023-05-21T16:44:37.721Z,23.3
2023-05-21T16:46:38.858Z,23.4
2023-05-21T16:48:39.683Z,23.5
2023-05-21T16:50:40.619Z,23.6
2023-05-21T16:52:41.587Z,23.7
2023-05-21T16:54:44.067Z,23.7
2023-05-21T17:06:51.541Z,23.6
2023-05-21T17:08:52.542Z,23.7
2023-05-21T17:10:53.487Z,23.6
2023-05-21T17:13:01.769Z,23.5
2023-05-21T17:14:58.627Z,23.6
2023-05-21T17:19:27.463Z,23.5
2023-05-21T17:21:28.318Z,23.6
2023-05-21T17:23:29.281Z,23.7
2023-05-21T17:25:34.513Z,23.5
2023-05-21T17:29:35.417Z,23.5
2023-05-21T17:33:37.377Z,23.3
2023-05-21T17:35:38.697Z,23.4
2023-05-21T17:37:39.253Z,23.4
2023-05-21T17:39:43.453Z,23.3
2023-05-21T17:41:44.449Z,23.3
2023-05-21T17:43:45.371Z,23.3
2023-05-21T17:45:46.352Z,23.2
2023-05-21T17:49:48.311Z,23.2
2023-05-21T17:53:53.460Z,23.4
2023-05-21T17:55:54.415Z,23.3
2023-05-21T17:57:55.397Z,23.3
2023-05-21T17:59:56.376Z,23.3
2023-05-21T18:01:57.337Z,23.2
2023-05-21T18:03:58.348Z,23.2
2023-05-21T18:05:59.318Z,23.2
2023-05-21T18:08:03.487Z,23.1
2023-05-21T18:10:04.464Z,23.1
2023-05-21T18:12:05.448Z,23
2023-05-21T18:25:18.091Z,22.7
2023-05-21T18:27:19.086Z,22.6
2023-05-21T18:29:20.075Z,22.5
2023-05-21T18:31:21.037Z,22.5
2023-05-21T18:33:22.033Z,22.4
2023-05-21T18:35:26.237Z,22.3
2023-05-21T18:37:27.239Z,22.3
2023-05-21T18:39:28.226Z,22.3
2023-05-21T18:41:29.210Z,22.3
2023-05-21T18:43:30.215Z,22.2
2023-05-21T18:45:31.223Z,22.2
2023-05-21T18:53:38.405Z,21.9
2023-05-21T19:08:50.770Z,21.6
2023-05-21T19:10:51.753Z,21.6
2023-05-21T19:14:53.822Z,21.5
2023-05-21T19:18:59.023Z,21.5
2023-05-21T19:21:00.057Z,21.4
2023-05-21T19:23:01.018Z,21.3
2023-05-21T19:27:03.096Z,21.2
2023-05-21T19:41:13.421Z,20.9
2023-05-21T19:57:24.867Z,20.6
2023-05-21T20:03:31.188Z,20.6
2023-05-21T20:04:33.287Z,20.5
2023-05-21T20:06:34.303Z,20.5
2023-05-21T20:08:35.337Z,20.5
2023-05-21T20:14:41.649Z,20.4
2023-05-21T20:16:43.335Z,20.4
2023-05-21T20:18:44.297Z,20.3
2023-05-21T20:20:45.303Z,20.3
2023-05-21T20:22:46.333Z,20.3
2023-05-21T20:24:47.356Z,20.3
2023-05-21T20:35:03.258Z,20
2023-05-21T20:36:56.763Z,19.8
2023-05-21T20:38:57.814Z,19.6
2023-05-21T20:41:02.068Z,19.5
2023-05-21T20:45:04.133Z,19.3
2023-05-21T20:47:05.295Z,19.2
2023-05-21T20:49:06.289Z,19.2
2023-05-21T20:51:07.270Z,19.1
2023-05-21T20:53:08.308Z,19
2023-05-21T20:55:12.548Z,18.9
2023-05-21T20:59:14.637Z,18.8
2023-05-21T21:03:43.673Z,18.7
2023-05-21T21:11:50.976Z,18.6
2023-05-21T21:13:52.028Z,18.6
2023-05-21T21:21:59.439Z,18.4
2023-05-21T21:30:03.708Z,18.3
2023-05-21T21:32:04.830Z,18.3
2023-05-21T21:34:05.933Z,18.3
2023-05-21T21:36:10.134Z,18.2
2023-05-21T21:40:12.245Z,18.2
2023-05-21T21:42:13.335Z,18.2
2023-05-21T21:44:14.403Z,18.2
2023-05-21T21:46:15.527Z,18.1
2023-05-21T21:48:16.577Z,18.1
2023-05-21T21:50:20.835Z,18.1
2023-05-21T21:52:21.887Z,18.1
2023-05-21T21:54:22.968Z,18
2023-05-21T21:55:25.187Z,18
2023-05-21T22:25:47.585Z,17.8
2023-05-21T22:27:48.674Z,17.7
2023-05-21T22:29:49.773Z,17.8
2023-05-21T22:31:54.020Z,17.8
2023-05-21T22:33:55.094Z,17.8
2023-05-21T22:37:57.237Z,17.7
2023-05-21T22:39:58.329Z,17.5
2023-05-21T22:41:59.467Z,17.3
2023-05-21T22:44:00.478Z,17.3
2023-05-21T22:46:04.797Z,17.2
2023-05-21T22:48:05.898Z,17.1
2023-05-21T22:50:06.927Z,17.2
2023-05-21T22:51:09.054Z,17.3
2023-05-21T23:05:19.929Z,17.3
2023-05-21T23:07:20.906Z,17.3
2023-05-21T23:09:21.945Z,17.3
2023-05-21T23:11:23.083Z,17.4
2023-05-21T23:13:27.331Z,17.3
2023-05-21T23:15:28.399Z,17.3
2023-05-21T23:21:31.676Z,17.3
2023-05-21T23:23:32.746Z,17.3
2023-05-21T23:33:41.346Z,17.2
2023-05-21T23:35:42.421Z,17.2
2023-05-21T23:46:53.158Z,17.2
2023-05-21T23:48:54.289Z,17.2
2023-05-21T23:50:55.347Z,17.1
2023-05-21T23:52:56.394Z,17.1
2023-05-21T23:57:01.755Z,17.1
2023-05-21T23:59:02.861Z,17.2
